sensor_id;sensor_type;location;lat;lon;timestamp;P1;durP1;ratioP1;P2;durP2;ratioP2
50104;SDS011;47690;39.202;-77.198;2024-02-14T00:01:17;2.10;;;1.90;;
50104;SDS011;47690;39.202;-77.198;2024-02-14T00:03:47;2.00;;;1.80;;
50104;SDS011;47690;39.202;-77.198;2024-02-14T00:06:17;2.15;;;1.95;;
50104;SDS011;47690;39.202;-77.198;2024-02-14T00:08:46;2.17;;;1.80;;
50104;SDS011;47690;39.202;-77.198;2024-02-14T00:11:18;1.77;;;1.67;;
50104;SDS011;47690;39.202;-77.198;2024-02-14T00:13:56;1.80;;;1.70;;
50104;SDS011;47690;39.202;-77.198;2024-02-14T00:16:31;1.63;;;1.52;;
50104;SDS011;47690;39.202;-77.198;2024-02-14T00:19:15;1.80;;;1.70;;
50104;SDS011;47690;39.202;-77.198;2024-02-14T00:21:46;1.73;;;1.63;;
50104;SDS011;47690;39.202;-77.198;2024-02-14T00:24:16;2.45;;;1.90;;
50104;SDS011;47690;39.202;-77.198;2024-02-14T00:26:46;1.80;;;1.70;;
50104;SDS011;47690;39.202;-77.198;2024-02-14T00:29:19;1.92;;;1.70;;
50104;SDS011;47690;39.202;-77.198;2024-02-14T00:31:52;2.08;;;1.80;;
50104;SDS011;47690;39.202;-77.198;2024-02-14T00:34:24;1.98;;;1.75;;
50104;SDS011;47690;39.202;-77.198;2024-02-14T00:36:56;1.73;;;1.63;;
50104;SDS011;47690;39.202;-77.198;2024-02-14T00:39:25;2.10;;;1.90;;
50104;SDS011;47690;39.202;-77.198;2024-02-14T00:41:56;1.92;;;1.75;;
50104;SDS011;47690;39.202;-77.198;2024-02-14T00:44:25;1.98;;;1.88;;
50104;SDS011;47690;39.202;-77.198;2024-02-14T00:46:56;1.92;;;1.83;;
50104;SDS011;47690;39.202;-77.198;2024-02-14T00:49:40;2.17;;;1.98;;
50104;SDS011;47690;39.202;-77.198;2024-02-14T00:52:10;2.00;;;1.90;;
50104;SDS011;47690;39.202;-77.198;2024-02-14T00:54:41;1.90;;;1.80;;
50104;SDS011;47690;39.202;-77.198;2024-02-14T00:57:18;2.20;;;2.00;;
50104;SDS011;47690;39.202;-77.198;2024-02-14T00:59:56;2.13;;;1.92;;
50104;SDS011;47690;39.202;-77.198;2024-02-14T01:02:38;2.20;;;2.00;;
50104;SDS011;47690;39.202;-77.198;2024-02-14T01:05:11;2.10;;;1.90;;
50104;SDS011;47690;39.202;-77.198;2024-02-14T01:07:43;2.03;;;1.90;;
50104;SDS011;47690;39.202;-77.198;2024-02-14T01:10:19;1.98;;;1.88;;
50104;SDS011;47690;39.202;-77.198;2024-02-14T01:12:52;2.10;;;1.90;;
50104;SDS011;47690;39.202;-77.198;2024-02-14T01:15:26;1.95;;;1.77;;
50104;SDS011;47690;39.202;-77.198;2024-02-14T01:17:59;2.05;;;1.90;;
50104;SDS011;47690;39.202;-77.198;2024-02-14T01:20:31;2.00;;;1.80;;
50104;SDS011;47690;39.202;-77.198;2024-02-14T01:23:03;2.13;;;1.92;;
50104;SDS011;47690;39.202;-77.198;2024-02-14T01:25:47;2.20;;;2.00;;
50104;SDS011;47690;39.202;-77.198;2024-02-14T01:28:20;1.90;;;1.80;;
50104;SDS011;47690;39.202;-77.198;2024-02-14T01:30:54;3.67;;;2.00;;
50104;SDS011;47690;39.202;-77.198;2024-02-14T01:33:26;2.20;;;2.00;;
50104;SDS011;47690;39.202;-77.198;2024-02-14T01:36:08;2.30;;;2.00;;
50104;SDS011;47690;39.202;-77.198;2024-02-14T01:38:39;2.35;;;2.15;;
50104;SDS011;47690;39.202;-77.198;2024-02-14T01:41:09;2.38;;;2.13;;
50104;SDS011;47690;39.202;-77.198;2024-02-14T01:43:41;2.33;;;2.00;;
50104;SDS011;47690;39.202;-77.198;2024-02-14T01:46:17;2.20;;;2.00;;
50104;SDS011;47690;39.202;-77.198;2024-02-14T01:48:54;2.50;;;2.00;;
50104;SDS011;47690;39.202;-77.198;2024-02-14T01:51:26;2.30;;;2.10;;
50104;SDS011;47690;39.202;-77.198;2024-02-14T01:53:56;1.98;;;1.80;;
50104;SDS011;47690;39.202;-77.198;2024-02-14T01:56:39;1.80;;;1.70;;
50104;SDS011;47690;39.202;-77.198;2024-02-14T01:59:16;1.98;;;1.77;;
50104;SDS011;47690;39.202;-77.198;2024-02-14T02:01:47;2.50;;;2.22;;
50104;SDS011;47690;39.202;-77.198;2024-02-14T02:04:21;3.20;;;2.70;;
50104;SDS011;47690;39.202;-77.198;2024-02-14T02:07:06;3.08;;;2.50;;
50104;SDS011;47690;39.202;-77.198;2024-02-14T02:09:40;3.10;;;2.50;;
50104;SDS011;47690;39.202;-77.198;2024-02-14T02:12:16;3.42;;;2.60;;
50104;SDS011;47690;39.202;-77.198;2024-02-14T02:15:06;2.47;;;2.28;;
50104;SDS011;47690;39.202;-77.198;2024-02-14T02:18:02;3.03;;;2.58;;
50104;SDS011;47690;39.202;-77.198;2024-02-14T02:21:11;2.60;;;2.33;;
50104;SDS011;47690;39.202;-77.198;2024-02-14T02:23:48;2.97;;;2.38;;
50104;SDS011;47690;39.202;-77.198;2024-02-14T02:26:20;3.28;;;2.25;;
50104;SDS011;47690;39.202;-77.198;2024-02-14T02:29:10;2.75;;;2.13;;
50104;SDS011;47690;39.202;-77.198;2024-02-14T02:31:44;2.30;;;2.10;;
50104;SDS011;47690;39.202;-77.198;2024-02-14T02:34:20;2.13;;;1.92;;
50104;SDS011;47690;39.202;-77.198;2024-02-14T02:36:53;1.80;;;1.70;;
50104;SDS011;47690;39.202;-77.198;2024-02-14T02:39:45;1.90;;;1.80;;
50104;SDS011;47690;39.202;-77.198;2024-02-14T02:42:34;1.90;;;1.80;;
50104;SDS011;47690;39.202;-77.198;2024-02-14T02:45:31;2.25;;;1.80;;
50104;SDS011;47690;39.202;-77.198;2024-02-14T02:48:24;2.08;;;1.85;;
50104;SDS011;47690;39.202;-77.198;2024-02-14T02:51:01;2.20;;;2.00;;
50104;SDS011;47690;39.202;-77.198;2024-02-14T02:54:07;2.20;;;1.80;;
50104;SDS011;47690;39.202;-77.198;2024-02-14T02:57:00;1.80;;;1.70;;
50104;SDS011;47690;39.202;-77.198;2024-02-14T02:59:34;2.28;;;2.00;;
50104;SDS011;47690;39.202;-77.198;2024-02-14T03:02:06;1.90;;;1.80;;
50104;SDS011;47690;39.202;-77.198;2024-02-14T03:04:58;2.63;;;2.20;;
50104;SDS011;47690;39.202;-77.198;2024-02-14T03:07:50;2.20;;;2.00;;
50104;SDS011;47690;39.202;-77.198;2024-02-14T03:10:41;2.53;;;2.08;;
50104;SDS011;47690;39.202;-77.198;2024-02-14T03:13:30;2.88;;;2.10;;
50104;SDS011;47690;39.202;-77.198;2024-02-14T03:16:22;2.33;;;2.13;;
50104;SDS011;47690;39.202;-77.198;2024-02-14T03:18:53;3.58;;;2.20;;
50104;SDS011;47690;39.202;-77.198;2024-02-14T03:21:23;2.65;;;2.22;;
50104;SDS011;47690;39.202;-77.198;2024-02-14T03:23:53;3.47;;;2.40;;
50104;SDS011;47690;39.202;-77.198;2024-02-14T03:26:24;3.10;;;2.28;;
50104;SDS011;47690;39.202;-77.198;2024-02-14T03:28:55;2.72;;;2.30;;
50104;SDS011;47690;39.202;-77.198;2024-02-14T03:31:27;2.47;;;2.20;;
50104;SDS011;47690;39.202;-77.198;2024-02-14T03:33:59;2.83;;;2.20;;
50104;SDS011;47690;39.202;-77.198;2024-02-14T03:36:31;3.20;;;2.17;;
50104;SDS011;47690;39.202;-77.198;2024-02-14T03:39:05;2.80;;;2.50;;
50104;SDS011;47690;39.202;-77.198;2024-02-14T03:41:40;2.80;;;2.20;;
50104;SDS011;47690;39.202;-77.198;2024-02-14T03:44:10;2.80;;;2.20;;
50104;SDS011;47690;39.202;-77.198;2024-02-14T03:46:41;2.50;;;2.15;;
50104;SDS011;47690;39.202;-77.198;2024-02-14T03:49:11;2.10;;;1.90;;
50104;SDS011;47690;39.202;-77.198;2024-02-14T03:51:41;3.03;;;2.20;;
50104;SDS011;47690;39.202;-77.198;2024-02-14T03:54:12;2.45;;;2.10;;
50104;SDS011;47690;39.202;-77.198;2024-02-14T03:56:47;2.63;;;2.10;;
50104;SDS011;47690;39.202;-77.198;2024-02-14T03:59:16;2.42;;;2.05;;
50104;SDS011;47690;39.202;-77.198;2024-02-14T04:01:53;3.33;;;2.10;;
50104;SDS011;47690;39.202;-77.198;2024-02-14T04:04:22;2.30;;;2.10;;
50104;SDS011;47690;39.202;-77.198;2024-02-14T04:06:52;2.10;;;1.95;;
50104;SDS011;47690;39.202;-77.198;2024-02-14T04:09:21;2.28;;;2.08;;
50104;SDS011;47690;39.202;-77.198;2024-02-14T04:11:50;2.28;;;2.08;;
50104;SDS011;47690;39.202;-77.198;2024-02-14T04:14:20;2.40;;;2.20;;
50104;SDS011;47690;39.202;-77.198;2024-02-14T04:16:49;2.78;;;2.42;;
50104;SDS011;47690;39.202;-77.198;2024-02-14T04:19:20;3.60;;;2.65;;
50104;SDS011;47690;39.202;-77.198;2024-02-14T04:21:49;2.47;;;2.22;;
50104;SDS011;47690;39.202;-77.198;2024-02-14T04:24:19;3.17;;;2.53;;
50104;SDS011;47690;39.202;-77.198;2024-02-14T04:26:53;2.92;;;2.50;;
50104;SDS011;47690;39.202;-77.198;2024-02-14T04:29:24;3.58;;;2.78;;
50104;SDS011;47690;39.202;-77.198;2024-02-14T04:31:56;3.35;;;2.85;;
50104;SDS011;47690;39.202;-77.198;2024-02-14T04:34:28;3.70;;;2.83;;
50104;SDS011;47690;39.202;-77.198;2024-02-14T04:36:59;3.30;;;2.65;;
50104;SDS011;47690;39.202;-77.198;2024-02-14T04:39:32;3.17;;;2.88;;
50104;SDS011;47690;39.202;-77.198;2024-02-14T04:42:04;3.05;;;2.60;;
50104;SDS011;47690;39.202;-77.198;2024-02-14T04:44:34;3.38;;;2.95;;
50104;SDS011;47690;39.202;-77.198;2024-02-14T04:47:04;3.10;;;2.50;;
50104;SDS011;47690;39.202;-77.198;2024-02-14T04:49:34;2.88;;;2.30;;
50104;SDS011;47690;39.202;-77.198;2024-02-14T04:52:06;3.35;;;2.53;;
50104;SDS011;47690;39.202;-77.198;2024-02-14T04:54:36;3.55;;;2.58;;
50104;SDS011;47690;39.202;-77.198;2024-02-14T04:57:05;3.28;;;2.50;;
50104;SDS011;47690;39.202;-77.198;2024-02-14T04:59:34;3.72;;;2.60;;
50104;SDS011;47690;39.202;-77.198;2024-02-14T05:02:03;2.65;;;2.33;;
50104;SDS011;47690;39.202;-77.198;2024-02-14T05:04:32;2.72;;;2.42;;
50104;SDS011;47690;39.202;-77.198;2024-02-14T05:07:05;3.63;;;2.85;;
50104;SDS011;47690;39.202;-77.198;2024-02-14T05:09:36;2.80;;;2.30;;
50104;SDS011;47690;39.202;-77.198;2024-02-14T05:12:05;3.83;;;2.40;;
50104;SDS011;47690;39.202;-77.198;2024-02-14T05:14:38;2.50;;;2.30;;
50104;SDS011;47690;39.202;-77.198;2024-02-14T05:17:08;3.42;;;2.35;;
50104;SDS011;47690;39.202;-77.198;2024-02-14T05:19:41;2.88;;;2.30;;
50104;SDS011;47690;39.202;-77.198;2024-02-14T05:22:11;2.50;;;2.17;;
50104;SDS011;47690;39.202;-77.198;2024-02-14T05:24:40;2.72;;;2.15;;
50104;SDS011;47690;39.202;-77.198;2024-02-14T05:27:09;3.60;;;2.55;;
50104;SDS011;47690;39.202;-77.198;2024-02-14T05:29:38;2.80;;;2.40;;
50104;SDS011;47690;39.202;-77.198;2024-02-14T05:32:07;2.90;;;2.42;;
50104;SDS011;47690;39.202;-77.198;2024-02-14T05:34:37;2.78;;;2.33;;
50104;SDS011;47690;39.202;-77.198;2024-02-14T05:37:05;2.28;;;2.08;;
50104;SDS011;47690;39.202;-77.198;2024-02-14T05:39:35;2.72;;;2.30;;
50104;SDS011;47690;39.202;-77.198;2024-02-14T05:42:05;2.83;;;2.30;;
50104;SDS011;47690;39.202;-77.198;2024-02-14T05:44:34;2.63;;;2.20;;
50104;SDS011;47690;39.202;-77.198;2024-02-14T05:47:04;2.42;;;2.22;;
50104;SDS011;47690;39.202;-77.198;2024-02-14T05:49:34;2.60;;;2.40;;
50104;SDS011;47690;39.202;-77.198;2024-02-14T05:52:04;2.72;;;2.25;;
50104;SDS011;47690;39.202;-77.198;2024-02-14T05:54:35;2.30;;;2.10;;
50104;SDS011;47690;39.202;-77.198;2024-02-14T05:57:05;2.47;;;2.20;;
50104;SDS011;47690;39.202;-77.198;2024-02-14T05:59:35;2.28;;;2.00;;
50104;SDS011;47690;39.202;-77.198;2024-02-14T06:02:05;2.92;;;2.13;;
50104;SDS011;47690;39.202;-77.198;2024-02-14T06:04:36;2.30;;;2.10;;
50104;SDS011;47690;39.202;-77.198;2024-02-14T06:07:05;2.30;;;2.10;;
50104;SDS011;47690;39.202;-77.198;2024-02-14T06:09:38;1.95;;;1.83;;
50104;SDS011;47690;39.202;-77.198;2024-02-14T06:12:08;2.40;;;2.05;;
50104;SDS011;47690;39.202;-77.198;2024-02-14T06:14:37;2.60;;;2.20;;
50104;SDS011;47690;39.202;-77.198;2024-02-14T06:17:07;2.30;;;2.00;;
50104;SDS011;47690;39.202;-77.198;2024-02-14T06:19:40;2.10;;;1.90;;
50104;SDS011;47690;39.202;-77.198;2024-02-14T06:22:11;2.30;;;2.10;;
50104;SDS011;47690;39.202;-77.198;2024-02-14T06:24:41;2.10;;;1.88;;
50104;SDS011;47690;39.202;-77.198;2024-02-14T06:27:10;2.20;;;2.00;;
50104;SDS011;47690;39.202;-77.198;2024-02-14T06:29:44;2.28;;;2.08;;
50104;SDS011;47690;39.202;-77.198;2024-02-14T06:32:13;2.10;;;1.90;;
50104;SDS011;47690;39.202;-77.198;2024-02-14T06:34:43;2.20;;;2.00;;
50104;SDS011;47690;39.202;-77.198;2024-02-14T06:37:13;2.00;;;1.80;;
50104;SDS011;47690;39.202;-77.198;2024-02-14T06:39:42;2.15;;;1.95;;
50104;SDS011;47690;39.202;-77.198;2024-02-14T06:42:11;2.20;;;2.00;;
50104;SDS011;47690;39.202;-77.198;2024-02-14T06:44:40;2.10;;;1.90;;
50104;SDS011;47690;39.202;-77.198;2024-02-14T06:47:08;2.25;;;2.05;;
50104;SDS011;47690;39.202;-77.198;2024-02-14T06:49:36;2.10;;;1.95;;
50104;SDS011;47690;39.202;-77.198;2024-02-14T06:52:06;2.20;;;2.00;;
50104;SDS011;47690;39.202;-77.198;2024-02-14T06:54:35;2.45;;;2.20;;
50104;SDS011;47690;39.202;-77.198;2024-02-14T06:57:04;2.63;;;2.08;;
50104;SDS011;47690;39.202;-77.198;2024-02-14T06:59:34;2.05;;;1.90;;
50104;SDS011;47690;39.202;-77.198;2024-02-14T07:02:06;1.92;;;1.73;;
50104;SDS011;47690;39.202;-77.198;2024-02-14T07:04:40;1.90;;;1.75;;
50104;SDS011;47690;39.202;-77.198;2024-02-14T07:07:09;1.80;;;1.70;;
50104;SDS011;47690;39.202;-77.198;2024-02-14T07:09:37;2.08;;;1.88;;
50104;SDS011;47690;39.202;-77.198;2024-02-14T07:12:06;2.15;;;1.92;;
50104;SDS011;47690;39.202;-77.198;2024-02-14T07:14:35;1.92;;;1.80;;
50104;SDS011;47690;39.202;-77.198;2024-02-14T07:17:04;1.90;;;1.80;;
50104;SDS011;47690;39.202;-77.198;2024-02-14T07:19:33;2.20;;;1.90;;
50104;SDS011;47690;39.202;-77.198;2024-02-14T07:22:04;1.90;;;1.80;;
50104;SDS011;47690;39.202;-77.198;2024-02-14T07:24:33;1.75;;;1.65;;
50104;SDS011;47690;39.202;-77.198;2024-02-14T07:27:01;2.30;;;1.80;;
50104;SDS011;47690;39.202;-77.198;2024-02-14T07:29:34;2.00;;;1.80;;
50104;SDS011;47690;39.202;-77.198;2024-02-14T07:32:05;1.90;;;1.80;;
50104;SDS011;47690;39.202;-77.198;2024-02-14T07:34:38;1.95;;;1.77;;
50104;SDS011;47690;39.202;-77.198;2024-02-14T07:37:08;1.98;;;1.77;;
50104;SDS011;47690;39.202;-77.198;2024-02-14T07:39:37;1.90;;;1.70;;
50104;SDS011;47690;39.202;-77.198;2024-02-14T07:42:05;1.65;;;1.55;;
50104;SDS011;47690;39.202;-77.198;2024-02-14T07:44:34;1.75;;;1.65;;
50104;SDS011;47690;39.202;-77.198;2024-02-14T07:47:03;1.80;;;1.70;;
50104;SDS011;47690;39.202;-77.198;2024-02-14T07:49:34;1.80;;;1.70;;
50104;SDS011;47690;39.202;-77.198;2024-02-14T07:52:03;1.80;;;1.70;;
50104;SDS011;47690;39.202;-77.198;2024-02-14T07:54:33;1.98;;;1.70;;
50104;SDS011;47690;39.202;-77.198;2024-02-14T07:57:03;2.20;;;2.00;;
50104;SDS011;47690;39.202;-77.198;2024-02-14T07:59:33;2.33;;;2.00;;
50104;SDS011;47690;39.202;-77.198;2024-02-14T08:02:01;1.85;;;1.75;;
50104;SDS011;47690;39.202;-77.198;2024-02-14T08:04:31;1.83;;;1.73;;
50104;SDS011;47690;39.202;-77.198;2024-02-14T08:07:03;1.77;;;1.67;;
50104;SDS011;47690;39.202;-77.198;2024-02-14T08:09:31;1.70;;;1.60;;
50104;SDS011;47690;39.202;-77.198;2024-02-14T08:12:01;1.83;;;1.73;;
50104;SDS011;47690;39.202;-77.198;2024-02-14T08:14:33;1.60;;;1.50;;
50104;SDS011;47690;39.202;-77.198;2024-02-14T08:17:05;1.52;;;1.42;;
50104;SDS011;47690;39.202;-77.198;2024-02-14T08:19:35;1.70;;;1.60;;
50104;SDS011;47690;39.202;-77.198;2024-02-14T08:22:04;1.80;;;1.70;;
50104;SDS011;47690;39.202;-77.198;2024-02-14T08:24:35;1.98;;;1.70;;
50104;SDS011;47690;39.202;-77.198;2024-02-14T08:27:04;1.70;;;1.60;;
50104;SDS011;47690;39.202;-77.198;2024-02-14T08:29:35;1.63;;;1.52;;
50104;SDS011;47690;39.202;-77.198;2024-02-14T08:32:03;1.85;;;1.70;;
50104;SDS011;47690;39.202;-77.198;2024-02-14T08:34:34;1.80;;;1.70;;
50104;SDS011;47690;39.202;-77.198;2024-02-14T08:37:04;1.60;;;1.50;;
50104;SDS011;47690;39.202;-77.198;2024-02-14T08:39:34;1.50;;;1.40;;
50104;SDS011;47690;39.202;-77.198;2024-02-14T08:42:04;1.90;;;1.80;;
50104;SDS011;47690;39.202;-77.198;2024-02-14T08:44:35;1.80;;;1.70;;
50104;SDS011;47690;39.202;-77.198;2024-02-14T08:47:06;1.80;;;1.70;;
50104;SDS011;47690;39.202;-77.198;2024-02-14T08:49:36;1.77;;;1.67;;
50104;SDS011;47690;39.202;-77.198;2024-02-14T08:52:06;1.60;;;1.50;;
50104;SDS011;47690;39.202;-77.198;2024-02-14T08:54:36;1.70;;;1.60;;
50104;SDS011;47690;39.202;-77.198;2024-02-14T08:57:04;1.77;;;1.67;;
50104;SDS011;47690;39.202;-77.198;2024-02-14T08:59:33;1.83;;;1.73;;
50104;SDS011;47690;39.202;-77.198;2024-02-14T09:02:03;1.70;;;1.60;;
50104;SDS011;47690;39.202;-77.198;2024-02-14T09:04:33;2.00;;;1.80;;
50104;SDS011;47690;39.202;-77.198;2024-02-14T09:07:04;1.70;;;1.60;;
50104;SDS011;47690;39.202;-77.198;2024-02-14T09:09:35;1.65;;;1.50;;
50104;SDS011;47690;39.202;-77.198;2024-02-14T09:12:06;1.83;;;1.73;;
50104;SDS011;47690;39.202;-77.198;2024-02-14T09:14:35;1.48;;;1.38;;
50104;SDS011;47690;39.202;-77.198;2024-02-14T09:17:04;1.55;;;1.45;;
50104;SDS011;47690;39.202;-77.198;2024-02-14T09:19:34;1.65;;;1.55;;
50104;SDS011;47690;39.202;-77.198;2024-02-14T09:22:04;1.67;;;1.58;;
50104;SDS011;47690;39.202;-77.198;2024-02-14T09:24:34;2.00;;;1.70;;
50104;SDS011;47690;39.202;-77.198;2024-02-14T09:27:03;1.83;;;1.65;;
50104;SDS011;47690;39.202;-77.198;2024-02-14T09:29:34;1.65;;;1.55;;
50104;SDS011;47690;39.202;-77.198;2024-02-14T09:32:06;1.80;;;1.70;;
50104;SDS011;47690;39.202;-77.198;2024-02-14T09:34:37;1.75;;;1.65;;
50104;SDS011;47690;39.202;-77.198;2024-02-14T09:37:06;1.80;;;1.70;;
50104;SDS011;47690;39.202;-77.198;2024-02-14T09:39:35;1.80;;;1.70;;
50104;SDS011;47690;39.202;-77.198;2024-02-14T09:42:08;2.15;;;1.95;;
50104;SDS011;47690;39.202;-77.198;2024-02-14T09:44:40;2.50;;;1.70;;
50104;SDS011;47690;39.202;-77.198;2024-02-14T09:47:08;1.90;;;1.80;;
50104;SDS011;47690;39.202;-77.198;2024-02-14T09:49:37;1.83;;;1.73;;
50104;SDS011;47690;39.202;-77.198;2024-02-14T09:52:11;2.13;;;1.92;;
50104;SDS011;47690;39.202;-77.198;2024-02-14T09:54:42;2.30;;;2.00;;
50104;SDS011;47690;39.202;-77.198;2024-02-14T09:57:12;2.17;;;1.98;;
50104;SDS011;47690;39.202;-77.198;2024-02-14T09:59:42;1.90;;;1.80;;
50104;SDS011;47690;39.202;-77.198;2024-02-14T10:02:12;2.13;;;1.90;;
50104;SDS011;47690;39.202;-77.198;2024-02-14T10:04:42;2.20;;;2.00;;
50104;SDS011;47690;39.202;-77.198;2024-02-14T10:07:10;1.90;;;1.80;;
50104;SDS011;47690;39.202;-77.198;2024-02-14T10:09:42;1.85;;;1.75;;
50104;SDS011;47690;39.202;-77.198;2024-02-14T10:12:11;2.20;;;2.00;;
50104;SDS011;47690;39.202;-77.198;2024-02-14T10:14:40;1.98;;;1.77;;
50104;SDS011;47690;39.202;-77.198;2024-02-14T10:17:20;2.00;;;1.80;;
50104;SDS011;47690;39.202;-77.198;2024-02-14T10:20:23;1.85;;;1.75;;
50104;SDS011;47690;39.202;-77.198;2024-02-14T10:22:46;1.90;;;1.80;;
50104;SDS011;47690;39.202;-77.198;2024-02-14T10:25:16;1.90;;;1.80;;
50104;SDS011;47690;39.202;-77.198;2024-02-14T10:27:46;2.08;;;1.92;;
50104;SDS011;47690;39.202;-77.198;2024-02-14T10:30:15;2.20;;;1.88;;
50104;SDS011;47690;39.202;-77.198;2024-02-14T10:32:46;2.20;;;2.00;;
50104;SDS011;47690;39.202;-77.198;2024-02-14T10:35:17;2.20;;;2.00;;
50104;SDS011;47690;39.202;-77.198;2024-02-14T10:37:49;2.28;;;2.00;;
50104;SDS011;47690;39.202;-77.198;2024-02-14T10:40:17;2.17;;;1.98;;
50104;SDS011;47690;39.202;-77.198;2024-02-14T10:42:48;1.88;;;1.75;;
50104;SDS011;47690;39.202;-77.198;2024-02-14T10:45:20;2.38;;;2.10;;
50104;SDS011;47690;39.202;-77.198;2024-02-14T10:47:49;1.80;;;1.70;;
50104;SDS011;47690;39.202;-77.198;2024-02-14T10:50:22;2.20;;;2.00;;
50104;SDS011;47690;39.202;-77.198;2024-02-14T10:52:57;2.40;;;2.03;;
50104;SDS011;47690;39.202;-77.198;2024-02-14T10:55:30;2.13;;;1.90;;
50104;SDS011;47690;39.202;-77.198;2024-02-14T10:58:00;2.28;;;2.05;;
50104;SDS011;47690;39.202;-77.198;2024-02-14T11:00:32;2.40;;;2.10;;
50104;SDS011;47690;39.202;-77.198;2024-02-14T11:03:03;2.10;;;1.90;;
50104;SDS011;47690;39.202;-77.198;2024-02-14T11:05:47;2.13;;;1.88;;
50104;SDS011;47690;39.202;-77.198;2024-02-14T11:08:20;2.08;;;1.95;;
50104;SDS011;47690;39.202;-77.198;2024-02-14T11:10:54;2.38;;;2.03;;
50104;SDS011;47690;39.202;-77.198;2024-02-14T11:13:30;2.17;;;1.98;;
50104;SDS011;47690;39.202;-77.198;2024-02-14T11:16:00;2.35;;;2.00;;
50104;SDS011;47690;39.202;-77.198;2024-02-14T11:18:36;1.95;;;1.85;;
50104;SDS011;47690;39.202;-77.198;2024-02-14T11:21:15;2.08;;;1.77;;
50104;SDS011;47690;39.202;-77.198;2024-02-14T11:23:55;2.65;;;2.00;;
50104;SDS011;47690;39.202;-77.198;2024-02-14T11:26:24;2.55;;;2.03;;
50104;SDS011;47690;39.202;-77.198;2024-02-14T11:29:00;2.08;;;1.90;;
50104;SDS011;47690;39.202;-77.198;2024-02-14T11:31:35;2.22;;;2.00;;
50104;SDS011;47690;39.202;-77.198;2024-02-14T11:34:08;2.78;;;2.13;;
50104;SDS011;47690;39.202;-77.198;2024-02-14T11:36:42;2.00;;;1.80;;
50104;SDS011;47690;39.202;-77.198;2024-02-14T11:39:12;2.55;;;1.80;;
50104;SDS011;47690;39.202;-77.198;2024-02-14T11:41:42;2.08;;;1.88;;
50104;SDS011;47690;39.202;-77.198;2024-02-14T11:44:11;2.20;;;1.98;;
50104;SDS011;47690;39.202;-77.198;2024-02-14T11:46:42;2.10;;;1.90;;
50104;SDS011;47690;39.202;-77.198;2024-02-14T11:49:11;2.08;;;1.88;;
50104;SDS011;47690;39.202;-77.198;2024-02-14T11:51:42;1.95;;;1.80;;
50104;SDS011;47690;39.202;-77.198;2024-02-14T11:54:10;2.13;;;1.92;;
50104;SDS011;47690;39.202;-77.198;2024-02-14T11:56:39;2.25;;;1.90;;
50104;SDS011;47690;39.202;-77.198;2024-02-14T11:59:08;1.92;;;1.73;;
50104;SDS011;47690;39.202;-77.198;2024-02-14T12:01:40;2.00;;;1.80;;
50104;SDS011;47690;39.202;-77.198;2024-02-14T12:04:08;2.10;;;1.90;;
50104;SDS011;47690;39.202;-77.198;2024-02-14T12:06:39;2.55;;;1.80;;
50104;SDS011;47690;39.202;-77.198;2024-02-14T12:09:11;1.88;;;1.77;;
50104;SDS011;47690;39.202;-77.198;2024-02-14T12:11:50;2.20;;;2.00;;
50104;SDS011;47690;39.202;-77.198;2024-02-14T12:14:19;1.98;;;1.77;;
50104;SDS011;47690;39.202;-77.198;2024-02-14T12:16:56;1.90;;;1.80;;
50104;SDS011;47690;39.202;-77.198;2024-02-14T12:19:29;1.77;;;1.67;;
50104;SDS011;47690;39.202;-77.198;2024-02-14T12:22:00;2.03;;;1.83;;
50104;SDS011;47690;39.202;-77.198;2024-02-14T12:24:29;1.90;;;1.67;;
50104;SDS011;47690;39.202;-77.198;2024-02-14T12:27:01;1.80;;;1.70;;
50104;SDS011;47690;39.202;-77.198;2024-02-14T12:29:30;1.70;;;1.60;;
50104;SDS011;47690;39.202;-77.198;2024-02-14T12:32:07;1.70;;;1.60;;
50104;SDS011;47690;39.202;-77.198;2024-02-14T12:34:37;2.08;;;1.90;;
50104;SDS011;47690;39.202;-77.198;2024-02-14T12:37:06;1.75;;;1.65;;
50104;SDS011;47690;39.202;-77.198;2024-02-14T12:39:36;1.90;;;1.80;;
50104;SDS011;47690;39.202;-77.198;2024-02-14T12:42:07;1.83;;;1.70;;
50104;SDS011;47690;39.202;-77.198;2024-02-14T12:44:36;3.15;;;1.90;;
50104;SDS011;47690;39.202;-77.198;2024-02-14T12:47:05;1.77;;;1.67;;
50104;SDS011;47690;39.202;-77.198;2024-02-14T12:49:35;1.80;;;1.70;;
50104;SDS011;47690;39.202;-77.198;2024-02-14T12:52:04;2.03;;;1.50;;
50104;SDS011;47690;39.202;-77.198;2024-02-14T12:54:35;1.42;;;1.33;;
50104;SDS011;47690;39.202;-77.198;2024-02-14T12:57:04;1.55;;;1.45;;
50104;SDS011;47690;39.202;-77.198;2024-02-14T12:59:34;1.80;;;1.70;;
50104;SDS011;47690;39.202;-77.198;2024-02-14T13:02:05;1.60;;;1.50;;
50104;SDS011;47690;39.202;-77.198;2024-02-14T13:04:37;1.40;;;1.40;;
50104;SDS011;47690;39.202;-77.198;2024-02-14T13:07:06;1.70;;;1.60;;
50104;SDS011;47690;39.202;-77.198;2024-02-14T13:09:36;1.50;;;1.40;;
50104;SDS011;47690;39.202;-77.198;2024-02-14T13:12:06;1.77;;;1.67;;
50104;SDS011;47690;39.202;-77.198;2024-02-14T13:14:37;1.60;;;1.50;;
50104;SDS011;47690;39.202;-77.198;2024-02-14T13:17:06;1.50;;;1.40;;
50104;SDS011;47690;39.202;-77.198;2024-02-14T13:19:39;1.50;;;1.40;;
50104;SDS011;47690;39.202;-77.198;2024-02-14T13:22:11;1.20;;;1.20;;
50104;SDS011;47690;39.202;-77.198;2024-02-14T13:24:39;1.73;;;1.63;;
50104;SDS011;47690;39.202;-77.198;2024-02-14T13:27:09;1.55;;;1.45;;
50104;SDS011;47690;39.202;-77.198;2024-02-14T13:29:38;1.60;;;1.50;;
50104;SDS011;47690;39.202;-77.198;2024-02-14T13:32:08;1.33;;;1.33;;
50104;SDS011;47690;39.202;-77.198;2024-02-14T13:34:38;1.33;;;1.23;;
50104;SDS011;47690;39.202;-77.198;2024-02-14T13:37:08;1.45;;;1.35;;
50104;SDS011;47690;39.202;-77.198;2024-02-14T13:39:36;1.52;;;1.42;;
50104;SDS011;47690;39.202;-77.198;2024-02-14T13:42:05;1.67;;;1.60;;
50104;SDS011;47690;39.202;-77.198;2024-02-14T13:44:35;1.60;;;1.50;;
50104;SDS011;47690;39.202;-77.198;2024-02-14T13:47:04;1.38;;;1.38;;
50104;SDS011;47690;39.202;-77.198;2024-02-14T13:49:33;1.60;;;1.50;;
50104;SDS011;47690;39.202;-77.198;2024-02-14T13:52:03;1.70;;;1.60;;
50104;SDS011;47690;39.202;-77.198;2024-02-14T13:54:33;1.50;;;1.40;;
50104;SDS011;47690;39.202;-77.198;2024-02-14T13:57:03;1.35;;;1.35;;
50104;SDS011;47690;39.202;-77.198;2024-02-14T13:59:34;1.40;;;1.40;;
50104;SDS011;47690;39.202;-77.198;2024-02-14T14:02:03;1.52;;;1.42;;
50104;SDS011;47690;39.202;-77.198;2024-02-14T14:04:34;1.45;;;1.40;;
50104;SDS011;47690;39.202;-77.198;2024-02-14T14:07:03;1.63;;;1.52;;
50104;SDS011;47690;39.202;-77.198;2024-02-14T14:09:34;1.63;;;1.52;;
50104;SDS011;47690;39.202;-77.198;2024-02-14T14:12:03;1.20;;;1.20;;
50104;SDS011;47690;39.202;-77.198;2024-02-14T14:14:34;1.70;;;1.60;;
50104;SDS011;47690;39.202;-77.198;2024-02-14T14:17:03;1.58;;;1.50;;
50104;SDS011;47690;39.202;-77.198;2024-02-14T14:19:34;1.42;;;1.38;;
50104;SDS011;47690;39.202;-77.198;2024-02-14T14:22:03;1.25;;;1.23;;
50104;SDS011;47690;39.202;-77.198;2024-02-14T14:24:35;1.50;;;1.40;;
50104;SDS011;47690;39.202;-77.198;2024-02-14T14:27:04;1.60;;;1.50;;
50104;SDS011;47690;39.202;-77.198;2024-02-14T14:29:37;1.58;;;1.50;;
50104;SDS011;47690;39.202;-77.198;2024-02-14T14:32:06;1.23;;;1.23;;
50104;SDS011;47690;39.202;-77.198;2024-02-14T14:34:36;2.08;;;1.45;;
50104;SDS011;47690;39.202;-77.198;2024-02-14T14:37:07;1.65;;;1.55;;
50104;SDS011;47690;39.202;-77.198;2024-02-14T14:39:35;1.55;;;1.45;;
50104;SDS011;47690;39.202;-77.198;2024-02-14T14:42:04;1.70;;;1.60;;
50104;SDS011;47690;39.202;-77.198;2024-02-14T14:44:35;1.40;;;1.40;;
50104;SDS011;47690;39.202;-77.198;2024-02-14T14:47:03;1.63;;;1.52;;
50104;SDS011;47690;39.202;-77.198;2024-02-14T14:49:35;1.52;;;1.48;;